createdAt,value
2023-05-05T00:00:42.175Z,16.40
2023-05-05T00:03:11.498Z,16.30
2023-05-05T00:05:38.749Z,16.20
2023-05-05T00:08:06.041Z,16.10
2023-05-05T00:10:33.065Z,16.10
2023-05-05T00:13:00.058Z,16.10
2023-05-05T00:15:29.986Z,16.10
2023-05-05T00:17:57.053Z,16.00
2023-05-05T00:20:24.181Z,16.00
2023-05-05T00:22:51.648Z,15.90
2023-05-05T00:25:18.632Z,15.70
2023-05-05T00:27:45.541Z,15.60
2023-05-05T00:30:13.917Z,15.60
2023-05-05T00:32:41.162Z,15.60
2023-05-05T00:35:08.859Z,15.60
2023-05-05T00:37:36.584Z,15.60
2023-05-05T00:40:03.854Z,15.50
2023-05-05T00:42:40.128Z,15.40
2023-05-05T00:45:07.534Z,15.30
2023-05-05T00:47:35.067Z,15.30
2023-05-05T00:50:07.335Z,15.20
2023-05-05T00:52:35.939Z,15.20
2023-05-05T00:55:04.892Z,15.20
2023-05-05T00:57:33.427Z,15.20
2023-05-05T01:00:01.808Z,15.10
2023-05-05T01:02:29.016Z,15.00
2023-05-05T01:04:58.060Z,14.90
2023-05-05T01:07:40.395Z,14.80
2023-05-05T01:10:19.763Z,14.70
2023-05-05T01:13:05.780Z,14.60
2023-05-05T01:15:40.576Z,14.60
2023-05-05T01:18:33.241Z,14.50
2023-05-05T01:21:00.043Z,14.40
2023-05-05T01:23:59.486Z,14.30
2023-05-05T01:27:03.037Z,14.30
2023-05-05T01:30:09.064Z,14.20
2023-05-05T01:32:42.546Z,14.00
2023-05-05T01:35:18.540Z,14.00
2023-05-05T01:38:08.360Z,14.00
2023-05-05T01:40:41.206Z,14.00
2023-05-05T01:43:10.463Z,13.90
2023-05-05T01:45:42.023Z,13.90
2023-05-05T01:48:09.827Z,13.80
2023-05-05T01:50:39.836Z,13.70
2023-05-05T01:53:10.005Z,13.70
2023-05-05T01:55:39.442Z,13.60
2023-05-05T01:58:07.528Z,13.50
2023-05-05T02:00:34.941Z,13.50
2023-05-05T02:03:04.882Z,13.40
2023-05-05T02:05:33.125Z,13.30
2023-05-05T02:08:01.221Z,13.30
2023-05-05T02:10:28.972Z,13.30
2023-05-05T02:12:56.927Z,13.30
2023-05-05T02:15:25.788Z,13.30
2023-05-05T02:17:54.006Z,13.20
2023-05-05T02:20:22.697Z,13.10
2023-05-05T02:22:49.732Z,13.10
2023-05-05T02:25:19.811Z,13.10
2023-05-05T02:27:48.963Z,13.10
2023-05-05T02:30:19.564Z,13.00
2023-05-05T02:32:57.239Z,13.00
2023-05-05T02:35:30.589Z,12.90
2023-05-05T02:38:02.817Z,12.80
2023-05-05T02:40:33.343Z,12.90
2023-05-05T02:43:04.891Z,12.90
2023-05-05T02:45:32.387Z,12.90
2023-05-05T02:48:04.166Z,12.90
2023-05-05T02:50:34.313Z,12.80
2023-05-05T02:53:01.854Z,12.80
2023-05-05T02:55:37.717Z,12.80
2023-05-05T02:58:14.537Z,12.80
2023-05-05T03:01:12.310Z,12.70
2023-05-05T03:03:47.305Z,12.70
2023-05-05T03:06:18.407Z,12.60
2023-05-05T03:08:53.804Z,12.70
2023-05-05T03:11:33.293Z,12.60
2023-05-05T03:14:11.090Z,12.50
2023-05-05T03:16:41.107Z,12.60
2023-05-05T03:19:11.437Z,12.50
2023-05-05T03:21:39.478Z,12.50
2023-05-05T03:24:17.656Z,12.40
2023-05-05T03:26:48.272Z,12.40
2023-05-05T03:29:16.105Z,12.40
2023-05-05T03:31:43.597Z,12.40
2023-05-05T03:34:10.702Z,12.40
2023-05-05T03:36:39.200Z,12.40
2023-05-05T03:39:06.220Z,12.40
2023-05-05T03:41:35.673Z,12.30
2023-05-05T03:44:03.726Z,12.30
2023-05-05T03:46:33.477Z,12.30
2023-05-05T03:49:00.608Z,12.30
2023-05-05T03:51:28.512Z,12.20
2023-05-05T03:53:55.476Z,12.20
2023-05-05T03:56:22.895Z,12.20
2023-05-05T03:58:49.839Z,12.20
2023-05-05T04:01:16.911Z,12.20
2023-05-05T04:03:44.211Z,12.20
2023-05-05T04:06:11.624Z,12.20
2023-05-05T04:08:38.712Z,12.20
2023-05-05T04:11:05.747Z,12.20
2023-05-05T04:13:33.062Z,12.20
2023-05-05T04:16:01.601Z,12.20
2023-05-05T04:18:28.861Z,12.20
2023-05-05T04:20:56.013Z,12.30
2023-05-05T04:23:24.059Z,12.30
2023-05-05T04:25:51.012Z,12.30
2023-05-05T04:28:21.622Z,12.40
2023-05-05T04:30:48.914Z,12.50
2023-05-05T04:33:16.172Z,12.50
2023-05-05T04:35:43.224Z,12.60
2023-05-05T04:38:10.386Z,12.70
2023-05-05T04:40:41.496Z,12.80
2023-05-05T04:43:09.220Z,12.90
2023-05-05T04:45:37.504Z,13.00
2023-05-05T04:48:05.531Z,13.10
2023-05-05T04:50:32.841Z,13.10
2023-05-05T04:52:59.658Z,13.20
2023-05-05T04:55:26.553Z,13.20
2023-05-05T04:57:53.819Z,13.30
2023-05-05T05:00:20.881Z,13.40
2023-05-05T05:02:47.732Z,13.50
2023-05-05T05:05:15.277Z,13.60
2023-05-05T05:07:42.669Z,13.70
2023-05-05T05:10:10.062Z,13.70
2023-05-05T05:12:37.166Z,13.80
2023-05-05T05:15:04.613Z,13.90
2023-05-05T05:17:32.651Z,14.00
2023-05-05T05:20:01.848Z,14.10
2023-05-05T05:22:31.182Z,14.30
2023-05-05T05:24:58.081Z,14.40
2023-05-05T05:27:25.488Z,14.50
2023-05-05T05:29:52.727Z,14.70
2023-05-05T05:32:19.511Z,14.80
2023-05-05T05:34:46.285Z,14.80
2023-05-05T05:37:13.873Z,14.90
2023-05-05T05:39:43.194Z,15.10
2023-05-05T05:42:10.480Z,15.10
2023-05-05T05:44:37.379Z,15.30
2023-05-05T05:47:04.570Z,15.30
2023-05-05T05:49:31.373Z,15.40
2023-05-05T05:51:58.158Z,15.50
2023-05-05T05:54:25.387Z,15.50
2023-05-05T05:56:56.477Z,15.50
2023-05-05T05:59:24.475Z,15.60
2023-05-05T06:01:51.808Z,15.70
2023-05-05T06:04:18.681Z,15.80
2023-05-05T06:06:46.991Z,15.80
2023-05-05T06:09:17.026Z,15.90
2023-05-05T06:12:22.823Z,15.80
2023-05-05T06:14:50.070Z,15.70
2023-05-05T06:17:18.146Z,15.70
2023-05-05T06:19:45.114Z,15.70
2023-05-05T06:26:01.955Z,16.00
2023-05-05T06:28:30.778Z,16.00
2023-05-05T06:34:40.248Z,16.20
2023-05-05T06:37:07.909Z,16.40
2023-05-05T06:39:34.948Z,16.70
2023-05-05T06:42:02.267Z,16.90
2023-05-05T06:44:31.373Z,16.80
2023-05-05T06:46:58.300Z,17.00
2023-05-05T06:49:25.588Z,17.20
2023-05-05T06:51:52.443Z,17.30
2023-05-05T06:54:20.995Z,17.50
2023-05-05T06:56:47.917Z,17.60
2023-05-05T06:59:15.877Z,17.80
2023-05-05T07:01:43.332Z,17.80
2023-05-05T07:04:10.604Z,18.00
2023-05-05T07:10:15.867Z,18.20
2023-05-05T07:12:42.934Z,18.00
2023-05-05T07:15:23.472Z,18.30
2023-05-05T07:17:54.282Z,18.40
2023-05-05T07:20:21.361Z,18.10
2023-05-05T07:22:48.241Z,18.60
2023-05-05T07:25:15.497Z,18.70
2023-05-05T07:27:42.522Z,18.30
2023-05-05T07:30:13.018Z,18.20
2023-05-05T07:32:41.599Z,18.20
2023-05-05T07:35:10.852Z,18.30
2023-05-05T07:37:37.725Z,18.10
2023-05-05T07:40:05.543Z,18.20
2023-05-05T07:42:34.752Z,18.20
2023-05-05T07:45:01.667Z,18.20
2023-05-05T07:47:28.869Z,18.40
2023-05-05T07:49:56.337Z,18.40
2023-05-05T07:52:37.319Z,18.70
2023-05-05T07:55:13.610Z,19.00
2023-05-05T07:57:40.811Z,19.00
2023-05-05T08:00:10.981Z,19.00
2023-05-05T08:02:38.652Z,19.00
2023-05-05T08:05:09.218Z,19.20
2023-05-05T08:07:41.800Z,19.40
2023-05-05T08:10:13.140Z,19.30
2023-05-05T08:12:40.776Z,19.40
2023-05-05T08:15:09.959Z,19.10
2023-05-05T08:17:53.573Z,19.40
2023-05-05T08:20:22.323Z,19.60
2023-05-05T08:22:50.924Z,19.40
2023-05-05T08:25:17.699Z,19.70
2023-05-05T08:27:46.024Z,19.80
2023-05-05T08:30:14.345Z,19.90
2023-05-05T08:32:41.316Z,19.60
2023-05-05T08:35:09.106Z,19.40
2023-05-05T08:37:37.587Z,19.60
2023-05-05T08:40:06.579Z,19.70
2023-05-05T08:42:38.520Z,19.90
2023-05-05T08:45:08.140Z,19.90
2023-05-05T08:47:39.391Z,20.00
2023-05-05T08:50:09.700Z,20.20
2023-05-05T08:52:44.905Z,20.30
2023-05-05T08:55:14.426Z,20.20
2023-05-05T08:58:06.008Z,20.40
2023-05-05T09:00:33.980Z,20.70
2023-05-05T09:03:02.089Z,20.50
2023-05-05T09:05:29.143Z,20.80
2023-05-05T09:08:00.141Z,21.00
2023-05-05T09:10:29.284Z,21.00
2023-05-05T09:12:57.217Z,20.90
2023-05-05T09:15:24.478Z,20.70
2023-05-05T09:17:51.862Z,20.70
2023-05-05T09:20:18.995Z,21.00
2023-05-05T09:22:48.254Z,20.60
2023-05-05T09:25:18.175Z,20.20
2023-05-05T09:27:48.338Z,20.60
2023-05-05T09:30:24.701Z,21.10
2023-05-05T09:33:03.351Z,20.90
2023-05-05T09:35:50.420Z,21.20
2023-05-05T09:38:17.712Z,21.30
2023-05-05T09:40:54.730Z,21.50
2023-05-05T09:43:24.605Z,21.40
2023-05-05T09:45:53.210Z,20.90
2023-05-05T09:48:29.611Z,20.70
2023-05-05T09:50:57.775Z,20.80
2023-05-05T09:53:25.799Z,20.70
2023-05-05T09:56:00.724Z,20.80
2023-05-05T09:58:29.648Z,20.90
2023-05-05T10:00:58.096Z,20.90
2023-05-05T10:03:26.070Z,21.10
2023-05-05T10:05:59.449Z,21.50
2023-05-05T10:08:29.346Z,21.70
2023-05-05T10:11:07.477Z,22.00
2023-05-05T10:13:40.457Z,22.50
2023-05-05T10:16:09.628Z,22.40
2023-05-05T10:18:40.009Z,22.60
2023-05-05T10:21:08.400Z,22.80
2023-05-05T10:23:41.694Z,22.40
2023-05-05T10:26:11.859Z,22.20
2023-05-05T10:28:45.741Z,22.00
2023-05-05T10:31:25.714Z,22.00
2023-05-05T10:34:31.320Z,22.10
2023-05-05T10:37:00.624Z,22.10
2023-05-05T10:39:28.501Z,22.50
2023-05-05T10:41:55.570Z,22.60
2023-05-05T10:44:23.407Z,22.40
2023-05-05T10:46:51.277Z,22.50
2023-05-05T10:49:21.186Z,23.00
2023-05-05T10:52:13.161Z,23.20
2023-05-05T10:54:46.511Z,23.80
2023-05-05T10:57:16.700Z,24.10
2023-05-05T10:59:43.840Z,24.50
2023-05-05T11:02:29.730Z,24.30
2023-05-05T11:05:18.499Z,23.80
2023-05-05T11:07:46.728Z,23.50
2023-05-05T11:10:15.574Z,23.60
2023-05-05T11:12:55.257Z,23.60
2023-05-05T11:15:28.228Z,23.60
2023-05-05T11:17:57.279Z,22.80
2023-05-05T11:20:44.228Z,22.20
2023-05-05T11:23:11.121Z,22.30
2023-05-05T11:25:39.209Z,22.10
2023-05-05T11:28:06.885Z,22.10
2023-05-05T11:30:34.279Z,22.20
2023-05-05T11:33:31.965Z,21.10
2023-05-05T11:35:59.100Z,19.20
2023-05-05T11:39:03.383Z,18.70
2023-05-05T11:41:33.518Z,18.30
2023-05-05T11:44:14.710Z,17.90
2023-05-05T11:47:04.957Z,17.70
2023-05-05T11:49:33.872Z,17.90
2023-05-05T11:52:01.011Z,17.80
2023-05-05T11:54:28.344Z,18.20
2023-05-05T11:56:58.941Z,18.70
2023-05-05T11:59:26.096Z,18.60
2023-05-05T12:01:53.444Z,18.60
2023-05-05T12:04:20.738Z,18.90
2023-05-05T12:06:49.389Z,18.50
2023-05-05T12:09:17.487Z,18.80
2023-05-05T12:11:53.467Z,19.00
2023-05-05T12:14:21.362Z,18.90
2023-05-05T12:17:06.819Z,18.90
2023-05-05T12:19:33.892Z,18.80
2023-05-05T12:22:05.246Z,18.60
2023-05-05T12:24:32.118Z,18.90
2023-05-05T12:27:09.161Z,19.20
2023-05-05T12:29:36.170Z,19.60
2023-05-05T12:32:04.332Z,19.60
2023-05-05T12:34:32.290Z,19.70
2023-05-05T12:36:59.673Z,20.00
2023-05-05T12:39:39.258Z,20.10
2023-05-05T12:42:06.898Z,20.10
2023-05-05T12:44:38.310Z,20.50
2023-05-05T12:47:05.915Z,20.30
2023-05-05T12:49:48.775Z,20.20
2023-05-05T12:52:16.441Z,20.30
2023-05-05T12:54:57.526Z,20.40
2023-05-05T12:57:24.584Z,20.40
2023-05-05T12:59:53.725Z,20.30
2023-05-05T13:02:21.493Z,20.20
2023-05-05T13:04:53.458Z,20.10
2023-05-05T13:07:22.061Z,20.20
2023-05-05T13:13:42.192Z,20.00
2023-05-05T13:16:09.145Z,20.20
2023-05-05T13:18:50.601Z,20.40
2023-05-05T13:21:17.396Z,20.10
2023-05-05T13:23:45.280Z,19.90
2023-05-05T13:26:13.684Z,19.50
2023-05-05T13:28:40.982Z,19.40
2023-05-05T13:31:08.208Z,19.30
2023-05-05T13:36:57.661Z,19.00
2023-05-05T13:39:24.700Z,18.80
2023-05-05T13:41:51.578Z,19.20
2023-05-05T13:44:19.797Z,19.20
2023-05-05T13:46:46.660Z,19.10
2023-05-05T13:49:13.958Z,19.00
2023-05-05T13:51:57.208Z,18.90
2023-05-05T13:54:24.221Z,19.00
2023-05-05T13:56:51.034Z,19.10
2023-05-05T13:59:18.135Z,19.10
2023-05-05T14:01:44.940Z,19.10
2023-05-05T14:04:11.852Z,19.10
2023-05-05T14:06:38.654Z,18.80
2023-05-05T14:09:06.439Z,19.00
2023-05-05T14:11:33.571Z,19.20
2023-05-05T14:14:39.649Z,19.40
2023-05-05T14:17:06.638Z,19.50
2023-05-05T14:19:33.694Z,19.30
2023-05-05T14:22:00.585Z,19.10
2023-05-05T14:28:17.181Z,19.30
2023-05-05T14:30:44.017Z,19.10
2023-05-05T14:33:10.817Z,19.10
2023-05-05T14:35:37.722Z,19.30
2023-05-05T14:38:04.586Z,19.50
2023-05-05T14:40:31.707Z,19.60
2023-05-05T14:42:58.863Z,19.80
2023-05-05T14:45:26.456Z,20.10
2023-05-05T14:47:53.783Z,20.50
2023-05-05T14:50:20.706Z,20.60
2023-05-05T14:52:47.592Z,20.70
2023-05-05T14:55:14.719Z,20.50
2023-05-05T14:57:41.595Z,20.20
2023-05-05T15:00:09.360Z,20.10
2023-05-05T15:02:36.300Z,19.70
2023-05-05T15:05:03.277Z,19.10
2023-05-05T15:07:30.504Z,18.60
2023-05-05T15:09:57.347Z,18.80
2023-05-05T15:12:24.318Z,18.60
2023-05-05T15:14:51.521Z,18.30
2023-05-05T15:17:18.324Z,18.40
2023-05-05T15:19:45.104Z,18.40
2023-05-05T15:22:11.925Z,18.40
2023-05-05T15:24:38.707Z,18.30
2023-05-05T15:27:05.582Z,18.50
2023-05-05T15:29:32.770Z,18.60
2023-05-05T15:31:59.673Z,18.70
2023-05-05T15:34:26.748Z,18.60
2023-05-05T15:36:54.067Z,18.40
2023-05-05T15:39:20.902Z,18.10
2023-05-05T15:41:47.816Z,18.00
2023-05-05T15:44:14.650Z,18.00
2023-05-05T15:46:44.116Z,18.00
2023-05-05T15:49:10.852Z,17.40
2023-05-05T15:51:37.657Z,17.10
2023-05-05T15:54:04.579Z,15.80
2023-05-05T15:56:31.375Z,15.20
2023-05-05T15:58:58.582Z,15.00
2023-05-05T16:01:25.603Z,15.00
2023-05-05T16:03:53.662Z,15.00
2023-05-05T16:06:20.624Z,15.00
2023-05-05T16:08:48.931Z,15.00
2023-05-05T16:11:16.184Z,15.00
2023-05-05T16:13:43.516Z,14.80
2023-05-05T16:16:11.820Z,14.90
2023-05-05T16:42:56.848Z,18.30
2023-05-05T16:45:24.452Z,18.10
2023-05-05T16:47:51.459Z,17.50
2023-05-05T16:50:18.436Z,17.30
2023-05-05T16:52:45.338Z,17.30
2023-05-05T16:55:12.418Z,17.30
2023-05-05T16:57:39.467Z,18.30
2023-05-05T17:00:07.821Z,17.90
2023-05-05T17:02:36.329Z,17.20
2023-05-05T17:05:03.345Z,17.00
2023-05-05T17:07:30.585Z,17.10
2023-05-05T17:09:57.767Z,16.90
2023-05-05T17:12:24.584Z,16.80
2023-05-05T17:14:51.791Z,16.70
2023-05-05T17:17:18.637Z,16.40
2023-05-05T17:19:45.775Z,16.60
2023-05-05T17:22:12.971Z,17.20
2023-05-05T17:24:39.703Z,18.80
2023-05-05T17:27:06.848Z,20.30
2023-05-05T17:29:36.863Z,20.30
2023-05-05T17:32:04.397Z,20.00
2023-05-05T17:34:31.286Z,19.70
2023-05-05T17:36:59.610Z,19.40
2023-05-05T17:39:26.894Z,18.40
2023-05-05T17:41:54.149Z,17.60
2023-05-05T17:44:21.802Z,17.10
2023-05-05T17:46:49.116Z,16.70
2023-05-05T17:52:00.028Z,16.10
2023-05-05T17:54:27.155Z,15.90
2023-05-05T17:56:57.151Z,15.70
2023-05-05T17:59:26.009Z,15.60
2023-05-05T18:01:52.938Z,15.70
2023-05-05T18:04:20.233Z,15.70
2023-05-05T18:06:47.521Z,15.70
2023-05-05T18:09:14.608Z,15.50
2023-05-05T18:11:42.496Z,15.60
2023-05-05T18:14:10.831Z,15.60
2023-05-05T18:16:37.834Z,15.50
2023-05-05T18:19:05.019Z,15.50
2023-05-05T18:21:33.385Z,15.40
2023-05-05T18:24:11.505Z,15.40
2023-05-05T18:26:50.122Z,15.30
2023-05-05T18:29:18.055Z,15.30
2023-05-05T18:31:46.388Z,15.20
2023-05-05T18:34:13.305Z,15.20
2023-05-05T18:36:40.080Z,15.20
2023-05-05T18:39:06.898Z,15.20
2023-05-05T18:41:33.885Z,15.30
2023-05-05T18:44:00.807Z,15.20
2023-05-05T18:46:28.841Z,15.20
2023-05-05T18:48:55.700Z,15.10
2023-05-05T18:51:22.423Z,15.00
2023-05-05T18:53:49.225Z,15.00
2023-05-05T18:56:16.052Z,14.90
2023-05-05T18:58:42.830Z,14.70
2023-05-05T19:01:09.747Z,14.80
2023-05-05T19:03:36.755Z,14.70
2023-05-05T19:06:07.182Z,14.70
2023-05-05T19:08:34.091Z,14.60
2023-05-05T19:11:00.867Z,14.60
2023-05-05T19:13:27.644Z,14.50
2023-05-05T19:15:57.046Z,14.50
2023-05-05T19:18:24.618Z,14.50
2023-05-05T19:20:51.473Z,14.40
2023-05-05T19:23:18.933Z,14.30
2023-05-05T19:25:46.509Z,14.20
2023-05-05T19:28:14.006Z,14.10
2023-05-05T19:30:41.626Z,14.00
2023-05-05T19:33:10.422Z,14.00
2023-05-05T19:35:42.810Z,13.90
2023-05-05T19:38:19.582Z,13.80
2023-05-05T19:40:46.727Z,13.80
2023-05-05T19:43:28.753Z,13.70
2023-05-05T19:45:57.317Z,13.60
2023-05-05T19:48:27.951Z,13.60
2023-05-05T19:50:55.549Z,13.50
2023-05-05T19:53:23.014Z,13.40
2023-05-05T19:55:50.365Z,13.40
2023-05-05T19:58:17.697Z,13.30
2023-05-05T20:00:44.888Z,13.20
2023-05-05T20:03:14.337Z,13.20
2023-05-05T20:05:41.750Z,13.10
2023-05-05T20:08:09.474Z,13.00
2023-05-05T20:10:39.314Z,12.90
2023-05-05T20:13:06.436Z,13.00
2023-05-05T20:15:37.931Z,12.90
2023-05-05T20:18:05.280Z,12.80
2023-05-05T20:20:32.626Z,12.70
2023-05-05T20:23:01.013Z,12.70
2023-05-05T20:25:28.222Z,12.80
2023-05-05T20:28:04.017Z,12.70
2023-05-05T20:30:31.686Z,12.70
2023-05-05T20:32:59.036Z,12.80
2023-05-05T20:35:29.327Z,12.80
2023-05-05T20:37:56.794Z,12.80
2023-05-05T20:40:28.243Z,12.80
2023-05-05T20:42:55.315Z,12.80
2023-05-05T20:45:24.104Z,12.70
2023-05-05T20:47:51.511Z,12.70
2023-05-05T20:50:24.837Z,12.70
2023-05-05T20:52:51.792Z,12.60
2023-05-05T20:55:21.707Z,12.60
2023-05-05T20:57:49.283Z,12.50
2023-05-05T21:00:18.575Z,12.40
2023-05-05T21:02:47.762Z,12.40
2023-05-05T21:05:17.924Z,12.40
2023-05-05T21:07:45.240Z,12.30
2023-05-05T21:10:12.725Z,12.30
2023-05-05T21:12:41.860Z,12.40
2023-05-05T21:15:09.867Z,12.40
2023-05-05T21:17:37.099Z,12.40
2023-05-05T21:20:05.660Z,12.40
2023-05-05T21:22:32.641Z,12.40
2023-05-05T21:25:19.676Z,12.40
2023-05-05T21:27:51.414Z,12.30
2023-05-05T21:30:23.088Z,12.40
2023-05-05T21:32:50.421Z,12.40
2023-05-05T21:35:17.305Z,12.30
2023-05-05T21:37:44.150Z,12.40
2023-05-05T21:40:14.035Z,12.40
2023-05-05T21:42:42.578Z,12.40
2023-05-05T21:45:11.528Z,12.50
2023-05-05T21:47:38.545Z,12.40
2023-05-05T21:50:07.265Z,12.40
2023-05-05T21:52:34.470Z,12.30
2023-05-05T21:55:01.361Z,12.30
2023-05-05T21:57:28.557Z,12.30
2023-05-05T21:59:55.896Z,12.20
2023-05-05T22:02:23.692Z,12.30
2023-05-05T22:04:53.891Z,12.20
2023-05-05T22:07:20.780Z,12.20
2023-05-05T22:09:49.088Z,12.20
2023-05-05T22:12:16.398Z,12.10
2023-05-05T22:14:43.173Z,12.10
2023-05-05T22:17:10.827Z,12.10
2023-05-05T22:19:37.873Z,12.10
2023-05-05T22:22:05.011Z,12.00
2023-05-05T22:24:32.782Z,12.10
2023-05-05T22:26:59.719Z,12.00
2023-05-05T22:29:26.584Z,12.00
2023-05-05T22:31:53.509Z,12.00
2023-05-05T22:34:22.159Z,12.10
2023-05-05T22:36:49.733Z,12.00
2023-05-05T22:39:18.834Z,12.00
2023-05-05T22:41:45.720Z,12.00
2023-05-05T22:44:12.769Z,12.00
2023-05-05T22:46:39.653Z,12.00
2023-05-05T22:49:06.633Z,12.00
2023-05-05T22:51:34.153Z,12.00
2023-05-05T22:54:01.340Z,11.90
2023-05-05T22:56:28.139Z,11.90
2023-05-05T22:58:56.082Z,11.90
2023-05-05T23:01:23.240Z,11.90
2023-05-05T23:03:50.352Z,11.90
2023-05-05T23:06:17.572Z,11.90
2023-05-05T23:08:44.782Z,11.90
2023-05-05T23:11:11.712Z,11.80
2023-05-05T23:13:38.612Z,11.80
2023-05-05T23:16:05.879Z,11.80
2023-05-05T23:18:32.753Z,11.80
2023-05-05T23:20:59.974Z,11.80
2023-05-05T23:23:27.064Z,11.80
2023-05-05T23:25:54.049Z,11.80
2023-05-05T23:28:20.934Z,11.80
2023-05-05T23:30:48.080Z,11.80
2023-05-05T23:33:15.272Z,11.80
2023-05-05T23:35:45.229Z,11.80
2023-05-05T23:38:12.415Z,11.80
2023-05-05T23:40:39.261Z,11.80
2023-05-05T23:43:06.084Z,11.70
2023-05-05T23:45:33.005Z,11.70
2023-05-05T23:48:00.273Z,11.70
2023-05-05T23:50:28.211Z,11.70
2023-05-05T23:52:55.079Z,11.70
2023-05-05T23:55:21.981Z,11.60
2023-05-05T23:57:49.178Z,11.60
